createdAt,value
2023-01-18T00:01:42.461Z,7.50
2023-01-18T00:04:09.421Z,8.30
2023-01-18T00:06:36.258Z,7.30
2023-01-18T00:09:03.255Z,7.90
2023-01-18T00:11:30.274Z,8.47
2023-01-18T00:13:57.207Z,8.17
2023-01-18T00:16:27.761Z,7.47
2023-01-18T00:18:59.645Z,8.20
2023-01-18T00:21:28.112Z,7.37
2023-01-18T00:23:59.176Z,8.03
2023-01-18T00:26:26.116Z,8.63
2023-01-18T00:29:04.659Z,9.10
2023-01-18T00:31:31.727Z,9.43
2023-01-18T00:34:04.787Z,9.40
2023-01-18T00:39:22.960Z,9.07
2023-01-18T00:42:10.760Z,9.90
2023-01-18T00:44:40.552Z,9.70
2023-01-18T00:47:19.443Z,9.33
2023-01-18T00:49:53.740Z,9.83
2023-01-18T00:52:20.947Z,9.77
2023-01-18T00:54:49.843Z,9.90
2023-01-18T00:57:16.800Z,10.63
2023-01-18T00:59:43.519Z,11.97
2023-01-18T01:02:18.067Z,11.07
2023-01-18T01:05:03.506Z,10.77
2023-01-18T01:07:33.062Z,11.10
2023-01-18T01:10:07.706Z,10.67
2023-01-18T01:12:54.038Z,12.20
2023-01-18T01:15:39.374Z,12.07
2023-01-18T01:18:24.861Z,12.13
2023-01-18T01:21:09.867Z,11.30
2023-01-18T01:23:55.377Z,10.77
2023-01-18T01:26:21.944Z,11.43
2023-01-18T01:28:52.663Z,12.13
2023-01-18T01:31:20.355Z,11.43
2023-01-18T01:33:50.154Z,10.63
2023-01-18T01:36:20.091Z,11.13
2023-01-18T01:38:47.175Z,11.33
2023-01-18T01:41:20.849Z,11.23
2023-01-18T01:43:53.254Z,11.17
2023-01-18T01:46:22.549Z,11.93
2023-01-18T01:48:49.193Z,11.70
2023-01-18T01:51:20.371Z,12.23
2023-01-18T01:53:51.020Z,12.17
2023-01-18T01:56:20.377Z,11.83
2023-01-18T01:58:51.622Z,12.13
2023-01-18T02:01:19.124Z,12.53
2023-01-18T02:03:46.101Z,12.07
2023-01-18T02:06:32.690Z,12.33
2023-01-18T02:09:08.909Z,15.47
2023-01-18T02:11:35.920Z,14.83
2023-01-18T02:14:07.887Z,12.37
2023-01-18T02:17:09.569Z,12.70
2023-01-18T02:20:07.421Z,12.63
2023-01-18T02:22:48.234Z,11.30
2023-01-18T02:25:42.295Z,12.73
2023-01-18T02:28:17.683Z,12.63
2023-01-18T02:30:56.039Z,13.77
2023-01-18T02:33:39.486Z,13.57
2023-01-18T02:36:07.091Z,12.77
2023-01-18T02:38:47.114Z,13.07
2023-01-18T02:41:46.137Z,12.60
2023-01-18T02:44:35.147Z,11.60
2023-01-18T02:47:04.125Z,11.83
2023-01-18T02:49:32.262Z,12.40
2023-01-18T02:52:06.937Z,12.63
2023-01-18T02:54:39.368Z,12.80
2023-01-18T02:57:13.279Z,12.73
2023-01-18T02:59:45.606Z,11.43
2023-01-18T03:02:16.618Z,12.80
2023-01-18T03:04:57.344Z,12.60
2023-01-18T03:07:29.588Z,12.17
2023-01-18T03:09:58.324Z,12.93
2023-01-18T03:12:46.077Z,12.93
2023-01-18T03:15:50.441Z,13.30
2023-01-18T03:19:00.894Z,12.50
2023-01-18T03:21:42.907Z,12.27
2023-01-18T03:24:11.386Z,12.83
2023-01-18T03:26:44.880Z,12.77
2023-01-18T03:29:32.177Z,12.57
2023-01-18T03:32:20.511Z,13.40
2023-01-18T03:35:07.967Z,12.53
2023-01-18T03:37:44.492Z,12.97
2023-01-18T03:40:19.778Z,13.40
2023-01-18T03:43:10.832Z,15.17
2023-01-18T03:45:41.801Z,14.30
2023-01-18T03:48:09.634Z,15.47
2023-01-18T03:51:00.968Z,15.87
2023-01-18T03:53:39.124Z,14.33
2023-01-18T03:56:13.797Z,13.73
2023-01-18T03:58:42.288Z,13.63
2023-01-18T04:01:09.583Z,14.37
2023-01-18T04:03:36.791Z,14.70
2023-01-18T04:06:06.219Z,14.00
2023-01-18T04:08:32.893Z,14.20
2023-01-18T04:10:59.891Z,14.53
2023-01-18T04:13:26.473Z,14.73
2023-01-18T04:15:53.128Z,14.80
2023-01-18T04:18:19.793Z,14.40
2023-01-18T04:20:46.425Z,14.80
2023-01-18T04:23:13.069Z,14.23
2023-01-18T04:25:40.830Z,14.90
2023-01-18T04:28:07.454Z,14.40
2023-01-18T04:30:34.007Z,14.40
2023-01-18T04:33:01.534Z,14.10
2023-01-18T04:35:28.449Z,14.00
2023-01-18T04:37:55.370Z,13.57
2023-01-18T04:40:22.071Z,13.77
2023-01-18T04:42:53.441Z,14.30
2023-01-18T04:45:20.586Z,13.67
2023-01-18T04:47:47.199Z,13.80
2023-01-18T04:50:13.951Z,13.77
2023-01-18T04:52:40.572Z,13.43
2023-01-18T04:55:07.944Z,12.93
2023-01-18T04:57:34.744Z,13.07
2023-01-18T05:00:02.249Z,12.13
2023-01-18T05:02:28.994Z,13.47
2023-01-18T05:04:55.850Z,13.47
2023-01-18T05:07:33.037Z,14.33
2023-01-18T05:10:04.060Z,14.03
2023-01-18T05:12:31.155Z,15.40
2023-01-18T05:14:57.727Z,14.50
2023-01-18T05:17:30.446Z,14.07
2023-01-18T05:19:57.118Z,14.73
2023-01-18T05:22:23.750Z,14.53
2023-01-18T05:24:50.383Z,15.30
2023-01-18T05:27:17.028Z,15.00
2023-01-18T05:29:44.081Z,15.70
2023-01-18T05:32:11.374Z,14.70
2023-01-18T05:34:38.102Z,15.27
2023-01-18T05:37:04.650Z,14.87
2023-01-18T05:39:31.358Z,14.67
2023-01-18T05:42:00.122Z,15.70
2023-01-18T05:44:27.789Z,14.97
2023-01-18T05:46:57.758Z,15.30
2023-01-18T05:49:24.476Z,15.80
2023-01-18T05:51:51.972Z,16.03
2023-01-18T05:54:20.016Z,16.23
2023-01-18T05:56:46.870Z,17.60
2023-01-18T05:59:15.517Z,17.70
2023-01-18T06:01:43.266Z,16.50
2023-01-18T06:04:10.250Z,16.33
2023-01-18T06:06:37.656Z,17.40
2023-01-18T06:09:05.178Z,17.13
2023-01-18T06:11:32.119Z,16.27
2023-01-18T06:13:58.839Z,17.93
2023-01-18T06:16:25.497Z,17.70
2023-01-18T06:18:52.796Z,17.90
2023-01-18T06:21:19.384Z,16.77
2023-01-18T06:23:46.043Z,18.23
2023-01-18T06:26:34.139Z,18.63
2023-01-18T06:29:01.834Z,22.50
2023-01-18T06:31:29.043Z,21.43
2023-01-18T06:33:55.875Z,31.07
2023-01-18T06:36:22.567Z,52.37
2023-01-18T06:38:49.303Z,23.60
2023-01-18T06:41:15.941Z,19.77
2023-01-18T06:43:43.224Z,18.47
2023-01-18T06:46:11.755Z,18.97
2023-01-18T06:48:38.767Z,17.90
2023-01-18T06:51:05.873Z,17.87
2023-01-18T06:53:32.730Z,17.20
2023-01-18T06:56:01.666Z,19.33
2023-01-18T06:58:31.408Z,18.57
2023-01-18T07:00:59.743Z,21.43
2023-01-18T07:03:28.159Z,20.77
2023-01-18T07:05:56.214Z,23.30
2023-01-18T07:08:23.734Z,22.53
2023-01-18T07:10:52.967Z,22.03
2023-01-18T07:13:21.063Z,20.57
2023-01-18T07:15:57.984Z,21.27
2023-01-18T07:18:26.531Z,23.37
2023-01-18T07:21:14.344Z,28.40
2023-01-18T07:23:42.750Z,31.87
2023-01-18T07:26:16.648Z,26.40
2023-01-18T07:28:45.508Z,23.83
2023-01-18T07:31:13.493Z,22.07
2023-01-18T07:33:40.035Z,22.07
2023-01-18T07:36:07.396Z,21.77
2023-01-18T07:38:35.335Z,21.20
2023-01-18T07:41:10.657Z,24.07
2023-01-18T07:43:38.461Z,22.03
2023-01-18T07:46:07.120Z,21.63
2023-01-18T07:48:38.071Z,27.90
2023-01-18T07:51:08.808Z,22.43
2023-01-18T07:53:37.754Z,23.77
2023-01-18T07:56:07.336Z,22.27
2023-01-18T07:58:36.268Z,22.13
2023-01-18T08:01:11.777Z,23.03
2023-01-18T08:03:39.446Z,22.47
2023-01-18T08:06:10.011Z,24.27
2023-01-18T08:08:37.381Z,23.00
2023-01-18T08:11:06.703Z,22.90
2023-01-18T08:13:33.503Z,24.03
2023-01-18T08:16:05.018Z,22.50
2023-01-18T08:18:31.589Z,23.70
2023-01-18T08:20:58.728Z,20.97
2023-01-18T08:23:25.802Z,22.40
2023-01-18T08:25:52.536Z,24.80
2023-01-18T08:28:19.647Z,23.73
2023-01-18T08:30:49.322Z,24.20
2023-01-18T08:33:16.499Z,27.50
2023-01-18T08:35:48.402Z,24.43
2023-01-18T08:38:16.357Z,23.43
2023-01-18T08:40:44.248Z,25.33
2023-01-18T08:43:12.311Z,23.90
2023-01-18T08:45:40.083Z,24.50
2023-01-18T08:48:09.997Z,23.27
2023-01-18T08:50:39.928Z,24.67
2023-01-18T08:53:06.849Z,22.87
2023-01-18T08:55:35.778Z,24.67
2023-01-18T08:58:02.622Z,23.57
2023-01-18T09:00:30.366Z,23.37
2023-01-18T09:02:59.337Z,23.33
2023-01-18T09:05:27.081Z,23.30
2023-01-18T09:07:56.075Z,22.20
2023-01-18T09:10:24.197Z,22.93
2023-01-18T09:12:52.935Z,22.50
2023-01-18T09:15:21.136Z,24.43
2023-01-18T09:17:47.646Z,23.63
2023-01-18T09:20:16.560Z,22.30
2023-01-18T09:22:45.901Z,22.83
2023-01-18T09:25:13.279Z,22.70
2023-01-18T09:27:40.780Z,19.13
2023-01-18T09:30:09.677Z,16.97
2023-01-18T09:32:37.565Z,15.00
2023-01-18T09:35:06.008Z,14.60
2023-01-18T09:37:32.699Z,14.80
2023-01-18T09:40:01.287Z,13.90
2023-01-18T09:42:36.217Z,16.03
2023-01-18T09:45:04.626Z,19.53
2023-01-18T09:47:43.064Z,13.90
2023-01-18T09:50:19.033Z,12.10
2023-01-18T09:53:16.307Z,12.70
2023-01-18T09:55:52.169Z,14.67
2023-01-18T09:58:35.103Z,12.67
2023-01-18T10:01:13.779Z,12.20
2023-01-18T10:04:17.250Z,11.50
2023-01-18T10:07:00.001Z,11.33
2023-01-18T10:09:49.353Z,12.53
2023-01-18T10:12:46.823Z,12.77
2023-01-18T10:15:29.161Z,12.57
2023-01-18T10:18:00.835Z,13.07
2023-01-18T10:20:47.214Z,12.37
2023-01-18T10:23:44.222Z,11.97
2023-01-18T10:26:21.659Z,11.60
2023-01-18T10:29:03.773Z,11.20
2023-01-18T10:31:58.387Z,11.27
2023-01-18T10:34:34.568Z,11.33
2023-01-18T10:37:18.507Z,12.37
2023-01-18T10:40:00.732Z,12.07
2023-01-18T10:42:41.219Z,12.00
2023-01-18T10:45:22.689Z,12.57
2023-01-18T10:47:55.197Z,12.47
2023-01-18T10:50:35.307Z,11.87
2023-01-18T10:53:23.588Z,11.53
2023-01-18T10:55:55.308Z,11.90
2023-01-18T10:58:28.795Z,11.57
2023-01-18T11:00:56.436Z,11.27
2023-01-18T11:03:27.695Z,10.60
2023-01-18T11:06:05.151Z,11.10
2023-01-18T11:08:35.168Z,11.10
2023-01-18T11:11:50.376Z,10.60
2023-01-18T11:14:26.149Z,10.83
2023-01-18T11:17:02.129Z,11.47
2023-01-18T11:19:29.613Z,11.13
2023-01-18T11:21:56.554Z,13.03
2023-01-18T11:24:27.738Z,14.60
2023-01-18T11:27:04.245Z,11.17
2023-01-18T11:29:41.558Z,9.87
2023-01-18T11:32:23.724Z,10.00
2023-01-18T11:34:53.662Z,9.75
2023-01-18T11:37:43.436Z,8.35
2023-01-18T11:40:20.275Z,7.53
2023-01-18T11:42:50.882Z,7.90
2023-01-18T11:45:29.332Z,8.20
2023-01-18T11:48:00.736Z,7.40
2023-01-18T11:50:45.521Z,7.25
2023-01-18T11:53:55.063Z,7.30
2023-01-18T11:56:34.065Z,7.32
2023-01-18T11:59:03.066Z,7.75
2023-01-18T12:02:20.788Z,6.97
2023-01-18T12:05:29.607Z,7.30
2023-01-18T12:08:17.804Z,7.97
2023-01-18T12:11:20.362Z,7.50
2023-01-18T12:14:24.767Z,7.03
2023-01-18T12:17:24.909Z,7.15
2023-01-18T12:20:22.957Z,7.68
2023-01-18T12:23:12.107Z,8.55
2023-01-18T12:26:11.736Z,8.00
2023-01-18T12:28:47.471Z,7.40
2023-01-18T12:31:43.293Z,7.40
2023-01-18T12:34:22.461Z,7.85
2023-01-18T12:36:59.197Z,7.35
2023-01-18T12:39:37.185Z,7.68
2023-01-18T12:42:07.994Z,7.63
2023-01-18T12:44:43.633Z,6.70
2023-01-18T12:47:34.795Z,9.32
2023-01-18T12:50:30.540Z,7.35
2023-01-18T12:53:07.689Z,7.35
2023-01-18T12:55:38.243Z,7.13
2023-01-18T12:58:05.924Z,6.38
2023-01-18T13:00:44.624Z,6.55
2023-01-18T13:03:15.410Z,6.50
2023-01-18T13:05:54.736Z,6.40
2023-01-18T13:08:44.770Z,6.07
2023-01-18T13:11:29.951Z,6.53
2023-01-18T13:14:17.882Z,7.00
2023-01-18T13:16:56.392Z,6.93
2023-01-18T13:19:33.513Z,7.35
2023-01-18T13:22:18.143Z,6.72
2023-01-18T13:25:12.112Z,6.45
2023-01-18T13:27:38.808Z,6.40
2023-01-18T13:30:19.769Z,6.50
2023-01-18T13:32:49.526Z,6.20
2023-01-18T13:35:29.278Z,6.65
2023-01-18T13:37:58.940Z,6.15
2023-01-18T13:40:40.996Z,6.03
2023-01-18T13:43:29.777Z,6.03
2023-01-18T13:46:08.937Z,6.25
2023-01-18T13:48:51.101Z,6.03
2023-01-18T13:51:36.407Z,6.35
2023-01-18T13:54:05.137Z,7.55
2023-01-18T13:56:36.593Z,6.05
2023-01-18T13:59:13.039Z,7.05
2023-01-18T14:01:43.822Z,10.10
2023-01-18T14:04:33.242Z,9.07
2023-01-18T14:07:03.671Z,7.57
2023-01-18T14:09:40.780Z,9.05
2023-01-18T14:12:08.109Z,8.82
2023-01-18T14:14:51.945Z,7.75
2023-01-18T14:17:18.625Z,8.03
2023-01-18T14:19:47.845Z,7.20
2023-01-18T14:22:38.754Z,7.93
2023-01-18T14:25:35.837Z,8.30
2023-01-18T14:28:17.412Z,8.57
2023-01-18T14:30:46.330Z,8.23
2023-01-18T14:33:37.936Z,7.87
2023-01-18T14:36:08.870Z,7.55
2023-01-18T14:38:36.759Z,8.05
2023-01-18T14:41:07.193Z,6.60
2023-01-18T14:43:45.776Z,6.45
2023-01-18T14:46:21.567Z,6.45
2023-01-18T14:48:57.473Z,6.25
2023-01-18T14:51:26.181Z,6.20
2023-01-18T14:54:05.275Z,6.10
2023-01-18T14:56:40.265Z,6.40
2023-01-18T14:59:32.084Z,6.20
2023-01-18T15:02:19.064Z,6.68
2023-01-18T15:04:47.263Z,7.00
2023-01-18T15:07:19.361Z,7.35
2023-01-18T15:09:47.051Z,7.25
2023-01-18T15:12:19.627Z,7.80
2023-01-18T15:14:49.349Z,8.87
2023-01-18T15:17:24.542Z,7.27
2023-01-18T15:19:59.631Z,8.27
2023-01-18T15:22:38.774Z,8.63
2023-01-18T15:25:14.764Z,8.60
2023-01-18T15:27:47.443Z,8.03
2023-01-18T15:30:14.429Z,8.60
2023-01-18T15:32:41.549Z,9.30
2023-01-18T15:35:14.275Z,9.10
2023-01-18T15:37:42.504Z,11.33
2023-01-18T15:40:15.589Z,9.30
2023-01-18T15:42:49.376Z,8.60
2023-01-18T15:45:31.909Z,9.53
2023-01-18T15:48:05.566Z,10.07
2023-01-18T15:50:49.444Z,10.57
2023-01-18T15:53:34.390Z,9.23
2023-01-18T15:56:08.294Z,10.57
2023-01-18T15:58:42.956Z,11.17
2023-01-18T16:01:13.294Z,10.40
2023-01-18T16:03:48.436Z,11.13
2023-01-18T16:06:37.357Z,10.63
2023-01-18T16:09:12.165Z,11.37
2023-01-18T16:11:51.961Z,11.43
2023-01-18T16:14:46.561Z,11.00
2023-01-18T16:17:21.161Z,10.57
2023-01-18T16:19:56.683Z,11.07
2023-01-18T16:22:29.443Z,12.40
2023-01-18T16:25:21.198Z,17.40
2023-01-18T16:28:00.623Z,11.37
2023-01-18T16:30:35.409Z,12.03
2023-01-18T16:33:18.390Z,11.47
2023-01-18T16:35:45.854Z,12.07
2023-01-18T16:38:14.381Z,11.60
2023-01-18T16:40:44.961Z,11.47
2023-01-18T16:43:22.742Z,12.77
2023-01-18T16:45:52.014Z,11.90
2023-01-18T16:48:24.452Z,16.57
2023-01-18T16:50:51.987Z,12.33
2023-01-18T16:53:19.787Z,11.23
2023-01-18T16:55:48.390Z,12.13
2023-01-18T16:58:16.384Z,11.43
2023-01-18T17:01:11.019Z,11.77
2023-01-18T17:03:37.868Z,11.97
2023-01-18T17:06:04.997Z,11.63
2023-01-18T17:08:31.939Z,12.20
2023-01-18T17:10:58.676Z,13.20
2023-01-18T17:13:26.601Z,11.57
2023-01-18T17:15:54.190Z,12.50
2023-01-18T17:18:25.914Z,11.63
2023-01-18T17:20:54.118Z,12.27
2023-01-18T17:23:22.002Z,12.27
2023-01-18T17:25:49.075Z,12.50
2023-01-18T17:28:19.141Z,12.50
2023-01-18T17:30:49.504Z,12.23
2023-01-18T17:33:22.420Z,11.93
2023-01-18T17:35:54.200Z,12.47
2023-01-18T17:38:25.085Z,12.17
2023-01-18T17:40:53.080Z,12.83
2023-01-18T17:43:32.199Z,12.50
2023-01-18T17:46:03.202Z,12.17
2023-01-18T17:48:30.685Z,12.83
2023-01-18T17:50:58.500Z,13.33
2023-01-18T17:53:26.578Z,12.13
2023-01-18T17:55:53.643Z,12.93
2023-01-18T17:58:21.363Z,12.90
2023-01-18T18:00:48.928Z,13.13
2023-01-18T18:03:16.819Z,12.63
2023-01-18T18:05:46.413Z,13.20
2023-01-18T18:08:29.673Z,12.67
2023-01-18T18:10:56.534Z,13.00
2023-01-18T18:13:23.184Z,12.77
2023-01-18T18:15:50.286Z,13.10
2023-01-18T18:18:24.193Z,15.80
2023-01-18T18:20:57.605Z,19.13
2023-01-18T18:23:25.262Z,19.57
2023-01-18T18:25:51.814Z,20.93
2023-01-18T18:28:18.884Z,24.57
2023-01-18T18:30:48.773Z,18.07
2023-01-18T18:33:16.175Z,18.40
2023-01-18T18:35:42.786Z,18.43
2023-01-18T18:38:09.416Z,17.77
2023-01-18T18:40:36.084Z,17.70
2023-01-18T18:43:03.300Z,20.93
2023-01-18T18:45:31.680Z,23.07
2023-01-18T18:47:58.318Z,20.43
2023-01-18T18:50:25.030Z,17.70
2023-01-18T18:52:51.613Z,25.87
2023-01-18T18:55:19.070Z,18.90
2023-01-18T18:57:45.687Z,19.10
2023-01-18T19:00:13.339Z,14.47
2023-01-18T19:02:39.979Z,13.40
2023-01-18T19:05:06.922Z,14.80
2023-01-18T19:07:37.318Z,14.33
2023-01-18T19:10:06.248Z,13.73
2023-01-18T19:12:33.161Z,13.10
2023-01-18T19:15:00.016Z,11.90
2023-01-18T19:17:30.837Z,12.40
2023-01-18T19:19:57.922Z,12.27
2023-01-18T19:22:24.648Z,11.97
2023-01-18T19:24:51.383Z,12.47
2023-01-18T19:27:18.035Z,12.33
2023-01-18T19:29:44.709Z,10.83
2023-01-18T19:32:11.285Z,13.27
2023-01-18T19:34:38.712Z,12.97
2023-01-18T19:37:05.524Z,12.63
2023-01-18T19:39:34.823Z,13.10
2023-01-18T19:42:02.424Z,13.33
2023-01-18T19:44:29.435Z,12.10
2023-01-18T19:46:56.877Z,11.30
2023-01-18T19:49:26.424Z,11.63
2023-01-18T19:51:54.309Z,11.27
2023-01-18T19:54:48.598Z,12.70
2023-01-18T19:57:25.545Z,10.63
2023-01-18T19:59:53.914Z,12.47
2023-01-18T20:02:33.510Z,11.50
2023-01-18T20:05:01.174Z,22.50
2023-01-18T20:07:27.788Z,14.90
2023-01-18T20:09:54.402Z,30.57
2023-01-18T20:12:21.324Z,12.73
2023-01-18T20:14:48.709Z,14.93
2023-01-18T20:17:15.381Z,16.43
2023-01-18T20:19:44.316Z,17.80
2023-01-18T20:22:11.116Z,11.87
2023-01-18T20:24:37.801Z,11.10
2023-01-18T20:27:15.395Z,10.93
2023-01-18T20:29:43.338Z,18.63
2023-01-18T20:32:16.106Z,10.80
2023-01-18T20:34:44.773Z,10.63
2023-01-18T20:37:12.598Z,11.73
2023-01-18T20:39:39.839Z,10.83
2023-01-18T20:42:06.519Z,10.67
2023-01-18T20:44:33.540Z,10.57
2023-01-18T20:47:00.198Z,9.17
2023-01-18T20:49:36.944Z,11.00
2023-01-18T20:52:05.905Z,9.60
2023-01-18T20:54:34.709Z,11.07
2023-01-18T20:57:02.323Z,12.73
2023-01-18T20:59:28.978Z,14.57
2023-01-18T21:01:55.916Z,21.50
2023-01-18T21:04:22.707Z,11.70
2023-01-18T21:06:49.827Z,9.67
2023-01-18T21:10:09.519Z,12.90
2023-01-18T21:13:06.707Z,12.23
2023-01-18T21:16:01.481Z,11.43
2023-01-18T21:22:08.250Z,12.23
2023-01-18T21:24:38.692Z,10.47
2023-01-18T21:27:05.456Z,15.33
2023-01-18T21:29:32.164Z,11.23
2023-01-18T21:31:59.231Z,23.77
2023-01-18T21:37:06.640Z,15.17
2023-01-18T21:39:33.495Z,14.50
2023-01-18T21:42:18.963Z,25.27
2023-01-18T21:45:04.402Z,23.00
2023-01-18T21:47:31.082Z,13.63
2023-01-18T21:50:18.309Z,13.20
2023-01-18T21:53:03.885Z,9.53
2023-01-18T21:55:30.687Z,9.20
2023-01-18T21:58:29.459Z,9.80
2023-01-18T22:01:00.315Z,9.60
2023-01-18T22:03:27.184Z,8.90
2023-01-18T22:05:58.658Z,9.73
2023-01-18T22:08:25.268Z,8.50
2023-01-18T22:10:51.841Z,8.77
2023-01-18T22:13:18.416Z,8.73
2023-01-18T22:15:45.130Z,10.47
2023-01-18T22:18:11.870Z,10.70
2023-01-18T22:20:38.608Z,9.63
2023-01-18T22:23:05.229Z,8.53
2023-01-18T22:25:31.849Z,10.47
2023-01-18T22:27:58.927Z,10.20
2023-01-18T22:30:26.725Z,9.33
2023-01-18T22:32:53.341Z,10.30
2023-01-18T22:35:20.189Z,9.93
2023-01-18T22:37:46.766Z,10.70
2023-01-18T22:40:13.702Z,9.43
2023-01-18T22:42:40.410Z,11.67
2023-01-18T22:45:07.877Z,9.70
2023-01-18T22:47:34.538Z,9.30
2023-01-18T22:50:01.150Z,8.37
2023-01-18T22:52:27.705Z,9.50
2023-01-18T22:54:54.349Z,8.13
2023-01-18T22:57:20.976Z,8.20
2023-01-18T22:59:48.526Z,9.03
2023-01-18T23:02:15.307Z,8.87
2023-01-18T23:04:42.020Z,9.27
2023-01-18T23:07:08.933Z,8.97
2023-01-18T23:09:35.620Z,8.80
2023-01-18T23:12:02.219Z,8.70
2023-01-18T23:14:47.544Z,9.33
2023-01-18T23:17:33.156Z,8.50
2023-01-18T23:19:59.830Z,8.77
2023-01-18T23:22:26.778Z,9.30
2023-01-18T23:24:53.421Z,9.43
2023-01-18T23:27:20.033Z,8.50
2023-01-18T23:29:51.448Z,7.87
2023-01-18T23:32:18.093Z,9.03
2023-01-18T23:34:47.639Z,8.23
2023-01-18T23:37:14.196Z,8.90
2023-01-18T23:39:59.519Z,7.90
2023-01-18T23:42:44.726Z,9.37
2023-01-18T23:45:30.273Z,8.80
2023-01-18T23:48:15.321Z,9.07
2023-01-18T23:51:00.801Z,8.20
2023-01-18T23:53:46.144Z,9.83
2023-01-18T23:56:16.688Z,9.50
2023-01-18T23:58:43.583Z,9.00
